sensor_id;sensor_type;location;lat;lon;timestamp;pressure;altitude;pressure_sealevel;temperature;humidity
64066;BME280;50318;54.760;9.408;2022-12-07T00:01:13;100727.78;;;5.08;63.56
64066;BME280;50318;54.760;9.408;2022-12-07T00:03:40;100722.06;;;5.03;63.70
64066;BME280;50318;54.760;9.408;2022-12-07T00:06:08;100717.44;;;5.00;63.91
64066;BME280;50318;54.760;9.408;2022-12-07T00:08:35;100725.59;;;5.00;64.19
64066;BME280;50318;54.760;9.408;2022-12-07T00:13:29;100720.59;;;4.94;64.43
64066;BME280;50318;54.760;9.408;2022-12-07T00:15:55;100730.56;;;5.05;64.51
64066;BME280;50318;54.760;9.408;2022-12-07T00:18:21;100729.28;;;5.13;64.91
64066;BME280;50318;54.760;9.408;2022-12-07T00:20:46;100734.25;;;5.18;65.03
64066;BME280;50318;54.760;9.408;2022-12-07T00:23:12;100724.53;;;5.20;65.10
64066;BME280;50318;54.760;9.408;2022-12-07T00:25:38;100721.00;;;5.20;64.91
64066;BME280;50318;54.760;9.408;2022-12-07T00:28:03;100731.03;;;5.27;64.85
64066;BME280;50318;54.760;9.408;2022-12-07T00:30:29;100739.19;;;5.27;64.54
64066;BME280;50318;54.760;9.408;2022-12-07T00:32:55;100735.34;;;5.24;64.70
64066;BME280;50318;54.760;9.408;2022-12-07T00:35:21;100733.06;;;5.19;64.42
64066;BME280;50318;54.760;9.408;2022-12-07T00:37:46;100725.72;;;5.16;64.30
64066;BME280;50318;54.760;9.408;2022-12-07T00:40:12;100732.72;;;5.17;64.47
64066;BME280;50318;54.760;9.408;2022-12-07T00:42:38;100717.22;;;5.14;64.83
64066;BME280;50318;54.760;9.408;2022-12-07T00:45:04;100707.94;;;5.11;64.78
64066;BME280;50318;54.760;9.408;2022-12-07T00:47:30;100713.31;;;5.15;64.58
64066;BME280;50318;54.760;9.408;2022-12-07T00:49:56;100722.59;;;5.17;64.62
64066;BME280;50318;54.760;9.408;2022-12-07T00:52:21;100720.22;;;5.19;64.90
64066;BME280;50318;54.760;9.408;2022-12-07T00:54:47;100723.34;;;5.21;65.25
64066;BME280;50318;54.760;9.408;2022-12-07T00:57:13;100721.25;;;5.29;65.51
64066;BME280;50318;54.760;9.408;2022-12-07T00:59:38;100730.91;;;5.34;65.50
64066;BME280;50318;54.760;9.408;2022-12-07T01:02:04;100725.34;;;5.41;65.45
64066;BME280;50318;54.760;9.408;2022-12-07T01:04:30;100717.59;;;5.39;65.44
64066;BME280;50318;54.760;9.408;2022-12-07T01:06:58;100717.25;;;5.37;64.97
64066;BME280;50318;54.760;9.408;2022-12-07T01:09:24;100727.56;;;5.49;65.12
64066;BME280;50318;54.760;9.408;2022-12-07T01:11:50;100716.72;;;5.46;65.07
64066;BME280;50318;54.760;9.408;2022-12-07T01:14:15;100723.28;;;5.48;64.75
64066;BME280;50318;54.760;9.408;2022-12-07T01:16:41;100736.06;;;5.51;64.07
64066;BME280;50318;54.760;9.408;2022-12-07T01:19:07;100729.56;;;5.45;64.04
64066;BME280;50318;54.760;9.408;2022-12-07T01:21:34;100719.06;;;5.44;64.42
64066;BME280;50318;54.760;9.408;2022-12-07T01:24:01;100714.09;;;5.39;64.55
64066;BME280;50318;54.760;9.408;2022-12-07T01:26:27;100720.31;;;5.39;64.25
64066;BME280;50318;54.760;9.408;2022-12-07T01:28:54;100732.09;;;5.33;63.78
64066;BME280;50318;54.760;9.408;2022-12-07T01:31:22;100723.22;;;5.29;63.87
64066;BME280;50318;54.760;9.408;2022-12-07T01:33:51;100735.69;;;5.26;63.86
64066;BME280;50318;54.760;9.408;2022-12-07T01:36:22;100731.88;;;5.20;63.65
64066;BME280;50318;54.760;9.408;2022-12-07T01:38:50;100724.97;;;5.15;63.96
64066;BME280;50318;54.760;9.408;2022-12-07T01:41:18;100726.63;;;5.09;63.64
64066;BME280;50318;54.760;9.408;2022-12-07T01:44:11;100717.69;;;5.09;63.80
64066;BME280;50318;54.760;9.408;2022-12-07T01:46:38;100708.81;;;5.05;63.95
64066;BME280;50318;54.760;9.408;2022-12-07T01:49:11;100700.78;;;4.98;64.20
64066;BME280;50318;54.760;9.408;2022-12-07T01:51:40;100712.00;;;5.00;64.40
64066;BME280;50318;54.760;9.408;2022-12-07T01:54:08;100699.63;;;4.95;63.91
64066;BME280;50318;54.760;9.408;2022-12-07T01:56:36;100710.09;;;4.97;64.20
64066;BME280;50318;54.760;9.408;2022-12-07T01:59:02;100711.66;;;4.98;64.23
64066;BME280;50318;54.760;9.408;2022-12-07T02:01:28;100711.28;;;4.96;64.35
64066;BME280;50318;54.760;9.408;2022-12-07T02:03:54;100704.03;;;4.85;64.21
64066;BME280;50318;54.760;9.408;2022-12-07T02:06:23;100708.59;;;4.92;64.44
64066;BME280;50318;54.760;9.408;2022-12-07T02:08:50;100704.03;;;4.85;64.24
64066;BME280;50318;54.760;9.408;2022-12-07T02:11:16;100710.25;;;4.86;64.19
64066;BME280;50318;54.760;9.408;2022-12-07T02:13:43;100705.28;;;4.81;64.17
64066;BME280;50318;54.760;9.408;2022-12-07T02:22:18;100714.25;;;4.78;64.44
64066;BME280;50318;54.760;9.408;2022-12-07T02:27:45;100705.34;;;4.77;64.60
64066;BME280;50318;54.760;9.408;2022-12-07T02:30:22;100702.25;;;4.75;64.73
64066;BME280;50318;54.760;9.408;2022-12-07T02:32:56;100705.28;;;4.81;64.61
64066;BME280;50318;54.760;9.408;2022-12-07T02:35:42;100703.75;;;4.80;64.75
64066;BME280;50318;54.760;9.408;2022-12-07T02:38:45;100701.38;;;4.82;64.82
64066;BME280;50318;54.760;9.408;2022-12-07T02:41:20;100701.03;;;4.80;64.89
64066;BME280;50318;54.760;9.408;2022-12-07T02:43:52;100699.91;;;4.77;64.93
64066;BME280;50318;54.760;9.408;2022-12-07T02:46:31;100709.19;;;4.80;64.83
64066;BME280;50318;54.760;9.408;2022-12-07T02:48:59;100704.56;;;4.77;64.87
64066;BME280;50318;54.760;9.408;2022-12-07T02:51:25;100699.09;;;4.80;64.69
64066;BME280;50318;54.760;9.408;2022-12-07T02:53:51;100692.47;;;4.81;64.93
64066;BME280;50318;54.760;9.408;2022-12-07T03:10:28;100689.13;;;4.70;64.87
64066;BME280;50318;54.760;9.408;2022-12-07T03:19:03;100678.25;;;4.70;65.00
64066;BME280;50318;54.760;9.408;2022-12-07T03:21:34;100676.28;;;4.71;64.76
64066;BME280;50318;54.760;9.408;2022-12-07T03:24:06;100669.69;;;4.72;64.72
64066;BME280;50318;54.760;9.408;2022-12-07T03:26:38;100670.06;;;4.74;65.08
64066;BME280;50318;54.760;9.408;2022-12-07T03:29:34;100670.78;;;4.78;64.97
64066;BME280;50318;54.760;9.408;2022-12-07T03:32:08;100662.28;;;4.76;65.05
64066;BME280;50318;54.760;9.408;2022-12-07T03:34:52;100659.91;;;4.78;64.82
64066;BME280;50318;54.760;9.408;2022-12-07T03:40:18;100654.16;;;4.72;64.86
64066;BME280;50318;54.760;9.408;2022-12-07T03:42:48;100645.22;;;4.72;65.09
64066;BME280;50318;54.760;9.408;2022-12-07T03:45:15;100647.91;;;4.75;64.65
64066;BME280;50318;54.760;9.408;2022-12-07T03:48:07;100644.78;;;4.77;64.74
64066;BME280;50318;54.760;9.408;2022-12-07T03:50:48;100644.84;;;4.73;64.57
64066;BME280;50318;54.760;9.408;2022-12-07T03:53:24;100645.97;;;4.76;64.63
64066;BME280;50318;54.760;9.408;2022-12-07T03:55:52;100634.41;;;4.68;65.17
64066;BME280;50318;54.760;9.408;2022-12-07T03:58:21;100645.19;;;4.75;64.63
64066;BME280;50318;54.760;9.408;2022-12-07T04:00:49;100632.09;;;4.67;64.67
64066;BME280;50318;54.760;9.408;2022-12-07T04:03:15;100638.31;;;4.67;64.66
64066;BME280;50318;54.760;9.408;2022-12-07T04:05:41;100637.94;;;4.65;64.21
64066;BME280;50318;54.760;9.408;2022-12-07T04:08:07;100631.41;;;4.62;64.62
64066;BME280;50318;54.760;9.408;2022-12-07T04:10:33;100642.56;;;4.68;64.58
64066;BME280;50318;54.760;9.408;2022-12-07T04:12:59;100625.25;;;4.58;65.22
64066;BME280;50318;54.760;9.408;2022-12-07T04:15:25;100640.19;;;4.70;64.98
64066;BME280;50318;54.760;9.408;2022-12-07T04:17:51;100638.22;;;4.74;65.52
64066;BME280;50318;54.760;9.408;2022-12-07T04:20:17;100628.91;;;4.75;64.97
64066;BME280;50318;54.760;9.408;2022-12-07T04:22:42;100629.69;;;4.72;64.99
64066;BME280;50318;54.760;9.408;2022-12-07T04:25:08;100634.22;;;4.82;64.77
64066;BME280;50318;54.760;9.408;2022-12-07T04:27:34;100630.72;;;4.82;65.16
64066;BME280;50318;54.760;9.408;2022-12-07T04:30:00;100633.03;;;4.83;64.92
64066;BME280;50318;54.760;9.408;2022-12-07T04:32:26;100623.69;;;4.84;64.96
64066;BME280;50318;54.760;9.408;2022-12-07T04:34:51;100612.59;;;4.75;64.83
64066;BME280;50318;54.760;9.408;2022-12-07T04:37:17;100628.78;;;4.82;64.67
64066;BME280;50318;54.760;9.408;2022-12-07T04:39:43;100628.06;;;4.78;64.98
64066;BME280;50318;54.760;9.408;2022-12-07T04:42:11;100624.94;;;4.80;65.13
64066;BME280;50318;54.760;9.408;2022-12-07T04:44:38;100628.84;;;4.79;64.65
64066;BME280;50318;54.760;9.408;2022-12-07T04:47:04;100623.69;;;4.84;65.01
64066;BME280;50318;54.760;9.408;2022-12-07T04:49:30;100616.03;;;4.79;65.38
64066;BME280;50318;54.760;9.408;2022-12-07T04:51:56;100622.03;;;4.90;65.16
64066;BME280;50318;54.760;9.408;2022-12-07T04:54:22;100613.47;;;4.92;65.72
64066;BME280;50318;54.760;9.408;2022-12-07T04:56:48;100608.81;;;4.92;66.08
64066;BME280;50318;54.760;9.408;2022-12-07T04:59:16;100611.09;;;4.94;66.08
64066;BME280;50318;54.760;9.408;2022-12-07T05:01:42;100616.38;;;5.05;66.62
64066;BME280;50318;54.760;9.408;2022-12-07T05:04:09;100619.34;;;5.14;66.50
64066;BME280;50318;54.760;9.408;2022-12-07T05:06:35;100620.38;;;5.20;66.78
64066;BME280;50318;54.760;9.408;2022-12-07T05:09:02;100619.88;;;5.29;66.72
64066;BME280;50318;54.760;9.408;2022-12-07T05:11:28;100618.19;;;5.35;66.60
64066;BME280;50318;54.760;9.408;2022-12-07T05:16:36;100613.03;;;5.40;66.31
64066;BME280;50318;54.760;9.408;2022-12-07T05:19:03;100615.00;;;5.40;65.99
64066;BME280;50318;54.760;9.408;2022-12-07T05:21:29;100619.56;;;5.46;66.11
64066;BME280;50318;54.760;9.408;2022-12-07T05:23:54;100603.75;;;5.38;65.58
64066;BME280;50318;54.760;9.408;2022-12-07T05:26:20;100600.34;;;5.34;65.41
64066;BME280;50318;54.760;9.408;2022-12-07T05:28:50;100615.69;;;5.44;64.99
64066;BME280;50318;54.760;9.408;2022-12-07T05:31:16;100609.56;;;5.40;65.58
64066;BME280;50318;54.760;9.408;2022-12-07T05:33:42;100610.25;;;5.44;65.46
64066;BME280;50318;54.760;9.408;2022-12-07T05:36:08;100604.13;;;5.40;65.94
64066;BME280;50318;54.760;9.408;2022-12-07T05:38:34;100606.75;;;5.43;65.45
64066;BME280;50318;54.760;9.408;2022-12-07T05:41:04;100607.41;;;5.51;65.41
64066;BME280;50318;54.760;9.408;2022-12-07T05:43:32;100612.09;;;5.50;65.31
64066;BME280;50318;54.760;9.408;2022-12-07T05:45:58;100603.25;;;5.46;64.81
64066;BME280;50318;54.760;9.408;2022-12-07T05:48:24;100607.16;;;5.45;64.93
64066;BME280;50318;54.760;9.408;2022-12-07T05:50:51;100598.59;;;5.43;64.73
64066;BME280;50318;54.760;9.408;2022-12-07T05:53:18;100591.06;;;5.31;64.72
64066;BME280;50318;54.760;9.408;2022-12-07T05:55:44;100601.13;;;5.34;64.34
64066;BME280;50318;54.760;9.408;2022-12-07T05:58:10;100584.09;;;5.30;64.38
64066;BME280;50318;54.760;9.408;2022-12-07T06:00:55;100596.56;;;5.28;64.50
64066;BME280;50318;54.760;9.408;2022-12-07T06:03:21;100599.66;;;5.30;64.20
64066;BME280;50318;54.760;9.408;2022-12-07T06:05:47;100589.66;;;5.23;64.27
64066;BME280;50318;54.760;9.408;2022-12-07T06:08:13;100587.06;;;5.16;64.18
64066;BME280;50318;54.760;9.408;2022-12-07T06:10:40;100578.97;;;5.12;64.66
64066;BME280;50318;54.760;9.408;2022-12-07T06:13:06;100592.84;;;5.18;64.49
64066;BME280;50318;54.760;9.408;2022-12-07T06:15:31;100596.75;;;5.17;64.23
64066;BME280;50318;54.760;9.408;2022-12-07T06:17:57;100587.53;;;5.11;64.29
64066;BME280;50318;54.760;9.408;2022-12-07T06:20:23;100581.41;;;5.07;64.31
64066;BME280;50318;54.760;9.408;2022-12-07T06:22:48;100570.59;;;5.03;64.68
64066;BME280;50318;54.760;9.408;2022-12-07T06:25:14;100589.41;;;5.14;64.48
64066;BME280;50318;54.760;9.408;2022-12-07T06:27:40;100584.41;;;5.12;64.62
64066;BME280;50318;54.760;9.408;2022-12-07T06:30:07;100587.53;;;5.11;64.66
64066;BME280;50318;54.760;9.408;2022-12-07T06:32:34;100586.91;;;5.03;64.90
64066;BME280;50318;54.760;9.408;2022-12-07T06:34:59;100599.53;;;5.13;64.58
64066;BME280;50318;54.760;9.408;2022-12-07T06:37:25;100597.66;;;5.10;64.76
64066;BME280;50318;54.760;9.408;2022-12-07T06:39:51;100601.13;;;5.11;64.26
64066;BME280;50318;54.760;9.408;2022-12-07T06:42:17;100598.47;;;5.07;64.27
64066;BME280;50318;54.760;9.408;2022-12-07T06:44:42;100604.69;;;5.08;63.86
64066;BME280;50318;54.760;9.408;2022-12-07T06:47:08;100580.03;;;4.95;63.81
64066;BME280;50318;54.760;9.408;2022-12-07T06:49:35;100590.03;;;5.02;63.93
64066;BME280;50318;54.760;9.408;2022-12-07T06:52:00;100580.84;;;4.92;64.01
64066;BME280;50318;54.760;9.408;2022-12-07T06:54:26;100604.03;;;5.00;63.76
64066;BME280;50318;54.760;9.408;2022-12-07T06:56:52;100591.28;;;4.97;63.67
64066;BME280;50318;54.760;9.408;2022-12-07T06:59:18;100603.28;;;5.00;63.74
64066;BME280;50318;54.760;9.408;2022-12-07T07:01:44;100589.84;;;4.89;63.56
64066;BME280;50318;54.760;9.408;2022-12-07T07:04:10;100595.56;;;4.94;63.39
64066;BME280;50318;54.760;9.408;2022-12-07T07:06:35;100594.84;;;4.90;63.45
64066;BME280;50318;54.760;9.408;2022-12-07T07:09:01;100596.53;;;4.84;63.30
64066;BME280;50318;54.760;9.408;2022-12-07T07:11:27;100608.03;;;4.92;63.23
64066;BME280;50318;54.760;9.408;2022-12-07T07:13:53;100608.81;;;4.92;63.26
64066;BME280;50318;54.760;9.408;2022-12-07T07:16:19;100580.44;;;4.70;62.97
64066;BME280;50318;54.760;9.408;2022-12-07T07:18:45;100611.53;;;4.92;62.87
64066;BME280;50318;54.760;9.408;2022-12-07T07:21:10;100605.38;;;4.88;62.45
64066;BME280;50318;54.760;9.408;2022-12-07T07:23:36;100601.84;;;4.91;62.76
64066;BME280;50318;54.760;9.408;2022-12-07T07:26:02;100606.84;;;4.93;62.53
64066;BME280;50318;54.760;9.408;2022-12-07T07:28:28;100600.28;;;4.90;62.58
64066;BME280;50318;54.760;9.408;2022-12-07T07:30:54;100603.78;;;4.91;62.47
64066;BME280;50318;54.760;9.408;2022-12-07T07:33:19;100603.84;;;4.87;62.23
64066;BME280;50318;54.760;9.408;2022-12-07T07:35:45;100606.09;;;4.92;62.16
64066;BME280;50318;54.760;9.408;2022-12-07T07:38:11;100618.03;;;4.99;62.23
64066;BME280;50318;54.760;9.408;2022-12-07T07:40:37;100604.06;;;4.97;62.26
64066;BME280;50318;54.760;9.408;2022-12-07T07:43:03;100603.31;;;4.96;61.83
64066;BME280;50318;54.760;9.408;2022-12-07T07:45:28;100610.59;;;5.03;61.59
64066;BME280;50318;54.760;9.408;2022-12-07T07:47:54;100610.94;;;5.05;61.69
64066;BME280;50318;54.760;9.408;2022-12-07T07:50:21;100612.50;;;5.06;61.68
64066;BME280;50318;54.760;9.408;2022-12-07T07:52:47;100610.19;;;5.04;61.87
64066;BME280;50318;54.760;9.408;2022-12-07T07:55:14;100624.00;;;5.13;61.82
64066;BME280;50318;54.760;9.408;2022-12-07T07:57:41;100609.41;;;5.04;61.76
64066;BME280;50318;54.760;9.408;2022-12-07T08:00:10;100623.53;;;5.18;61.89
64066;BME280;50318;54.760;9.408;2022-12-07T08:02:39;100620.00;;;5.21;61.82
64066;BME280;50318;54.760;9.408;2022-12-07T08:05:06;100606.91;;;5.13;61.93
64066;BME280;50318;54.760;9.408;2022-12-07T08:07:32;100624.53;;;5.28;61.79
64066;BME280;50318;54.760;9.408;2022-12-07T08:09:57;100627.53;;;5.34;61.59
64066;BME280;50318;54.760;9.408;2022-12-07T08:12:23;100614.84;;;5.27;61.60
64066;BME280;50318;54.760;9.408;2022-12-07T08:14:49;100626.44;;;5.31;61.37
64066;BME280;50318;54.760;9.408;2022-12-07T08:17:15;100629.78;;;5.39;61.45
64066;BME280;50318;54.760;9.408;2022-12-07T08:19:40;100630.53;;;5.39;61.54
64066;BME280;50318;54.760;9.408;2022-12-07T08:22:06;100637.06;;;5.45;61.42
64066;BME280;50318;54.760;9.408;2022-12-07T08:24:36;100638.53;;;5.50;61.81
64066;BME280;50318;54.760;9.408;2022-12-07T08:27:02;100629.97;;;5.51;61.64
64066;BME280;50318;54.760;9.408;2022-12-07T08:29:29;100619.91;;;5.48;61.54
64066;BME280;50318;54.760;9.408;2022-12-07T08:31:55;100627.09;;;5.59;61.17
64066;BME280;50318;54.760;9.408;2022-12-07T08:34:20;100626.69;;;5.60;61.33
64066;BME280;50318;54.760;9.408;2022-12-07T08:36:46;100628.16;;;5.65;61.61
64066;BME280;50318;54.760;9.408;2022-12-07T08:39:12;100631.97;;;5.67;60.96
64066;BME280;50318;54.760;9.408;2022-12-07T08:41:38;100631.97;;;5.67;61.13
64066;BME280;50318;54.760;9.408;2022-12-07T08:44:04;100636.53;;;5.74;61.15
64066;BME280;50318;54.760;9.408;2022-12-07T08:46:37;100637.25;;;5.78;60.99
64066;BME280;50318;54.760;9.408;2022-12-07T08:49:24;100630.59;;;5.79;60.66
64066;BME280;50318;54.760;9.408;2022-12-07T08:51:52;100630.94;;;5.81;60.55
64066;BME280;50318;54.760;9.408;2022-12-07T08:54:19;100635.91;;;5.86;60.00
64066;BME280;50318;54.760;9.408;2022-12-07T08:56:46;100637.78;;;5.89;60.43
64066;BME280;50318;54.760;9.408;2022-12-07T08:59:14;100638.13;;;5.95;60.19
64066;BME280;50318;54.760;9.408;2022-12-07T09:01:41;100641.59;;;5.95;59.52
64066;BME280;50318;54.760;9.408;2022-12-07T09:04:07;100616.56;;;5.80;59.66
64066;BME280;50318;54.760;9.408;2022-12-07T09:06:33;100642.72;;;5.98;59.83
64066;BME280;50318;54.760;9.408;2022-12-07T09:09:00;100633.22;;;6.06;59.85
64066;BME280;50318;54.760;9.408;2022-12-07T09:11:27;100639.34;;;6.10;59.60
64066;BME280;50318;54.760;9.408;2022-12-07T09:13:53;100629.56;;;6.12;59.30
64066;BME280;50318;54.760;9.408;2022-12-07T09:16:18;100621.22;;;6.03;58.97
64066;BME280;50318;54.760;9.408;2022-12-07T09:18:44;100631.47;;;6.15;59.20
64066;BME280;50318;54.760;9.408;2022-12-07T09:21:10;100630.69;;;6.15;59.03
64066;BME280;50318;54.760;9.408;2022-12-07T09:23:36;100640.25;;;6.23;58.63
64066;BME280;50318;54.760;9.408;2022-12-07T09:26:03;100643.25;;;6.29;59.18
64066;BME280;50318;54.760;9.408;2022-12-07T09:28:31;100623.06;;;6.26;59.06
64066;BME280;50318;54.760;9.408;2022-12-07T09:30:56;100631.94;;;6.30;58.52
64066;BME280;50318;54.760;9.408;2022-12-07T09:33:22;100638.75;;;6.38;59.04
64066;BME280;50318;54.760;9.408;2022-12-07T09:35:49;100633.25;;;6.42;58.49
64066;BME280;50318;54.760;9.408;2022-12-07T09:38:16;100637.84;;;6.45;58.43
64066;BME280;50318;54.760;9.408;2022-12-07T09:40:43;100641.69;;;6.47;58.38
64066;BME280;50318;54.760;9.408;2022-12-07T09:43:19;100640.41;;;6.52;58.37
64066;BME280;50318;54.760;9.408;2022-12-07T09:45:47;100629.59;;;6.49;58.09
64066;BME280;50318;54.760;9.408;2022-12-07T09:48:19;100639.13;;;6.57;58.08
64066;BME280;50318;54.760;9.408;2022-12-07T09:50:47;100630.53;;;6.58;58.25
64066;BME280;50318;54.760;9.408;2022-12-07T09:53:34;100638.22;;;6.63;57.98
64066;BME280;50318;54.760;9.408;2022-12-07T09:56:02;100625.41;;;6.60;57.43
64066;BME280;50318;54.760;9.408;2022-12-07T09:58:29;100625.00;;;6.62;57.40
64066;BME280;50318;54.760;9.408;2022-12-07T10:00:59;100631.06;;;6.69;57.71
64066;BME280;50318;54.760;9.408;2022-12-07T10:03:27;100611.13;;;6.56;57.91
64066;BME280;50318;54.760;9.408;2022-12-07T10:05:54;100630.47;;;6.78;57.12
64066;BME280;50318;54.760;9.408;2022-12-07T10:08:20;100625.69;;;6.82;57.49
64066;BME280;50318;54.760;9.408;2022-12-07T10:10:50;100629.91;;;6.87;56.81
64066;BME280;50318;54.760;9.408;2022-12-07T10:13:34;100637.22;;;6.90;56.19
64066;BME280;50318;54.760;9.408;2022-12-07T10:16:01;100605.00;;;6.68;56.36
64066;BME280;50318;54.760;9.408;2022-12-07T10:23:41;100643.78;;;6.92;55.60
64066;BME280;50318;54.760;9.408;2022-12-07T10:26:26;100642.84;;;6.99;55.40
64066;BME280;50318;54.760;9.408;2022-12-07T10:28:53;100646.66;;;7.01;55.72
64066;BME280;50318;54.760;9.408;2022-12-07T10:31:22;100645.38;;;7.06;55.77
64066;BME280;50318;54.760;9.408;2022-12-07T10:33:49;100644.91;;;7.11;55.65
64066;BME280;50318;54.760;9.408;2022-12-07T10:36:23;100646.44;;;7.12;55.35
64066;BME280;50318;54.760;9.408;2022-12-07T10:39:01;100644.91;;;7.11;55.16
64066;BME280;50318;54.760;9.408;2022-12-07T10:41:28;100632.53;;;7.06;54.39
64066;BME280;50318;54.760;9.408;2022-12-07T10:43:56;100635.59;;;7.08;54.53
64066;BME280;50318;54.760;9.408;2022-12-07T10:54:13;100630.66;;;7.20;54.63
64066;BME280;50318;54.760;9.408;2022-12-07T10:59:53;100618.44;;;7.24;54.88
64066;BME280;50318;54.760;9.408;2022-12-07T11:10:01;100609.16;;;7.22;54.63
64066;BME280;50318;54.760;9.408;2022-12-07T11:18:09;100613.66;;;7.28;54.57
64066;BME280;50318;54.760;9.408;2022-12-07T11:20:45;100617.16;;;7.29;54.41
64066;BME280;50318;54.760;9.408;2022-12-07T11:31:37;100609.69;;;7.17;54.41
64066;BME280;50318;54.760;9.408;2022-12-07T11:34:08;100601.75;;;7.06;53.93
64066;BME280;50318;54.760;9.408;2022-12-07T11:36:44;100603.47;;;7.00;53.60
64066;BME280;50318;54.760;9.408;2022-12-07T11:41:48;100588.81;;;6.94;53.77
64066;BME280;50318;54.760;9.408;2022-12-07T11:45:02;100603.31;;;6.91;54.12
64066;BME280;50318;54.760;9.408;2022-12-07T11:47:43;100594.09;;;6.85;54.52
64066;BME280;50318;54.760;9.408;2022-12-07T11:55:52;100584.66;;;6.73;55.14
64066;BME280;50318;54.760;9.408;2022-12-07T12:03:45;100586.94;;;6.58;54.66
64066;BME280;50318;54.760;9.408;2022-12-07T12:06:12;100597.75;;;6.62;55.08
64066;BME280;50318;54.760;9.408;2022-12-07T12:08:53;100583.34;;;6.45;55.08
64066;BME280;50318;54.760;9.408;2022-12-07T12:19:31;100609.16;;;6.40;55.26
64066;BME280;50318;54.760;9.408;2022-12-07T12:22:18;100604.94;;;6.36;55.66
64066;BME280;50318;54.760;9.408;2022-12-07T12:24:48;100602.22;;;6.36;56.40
64066;BME280;50318;54.760;9.408;2022-12-07T12:27:25;100613.06;;;6.39;56.04
64066;BME280;50318;54.760;9.408;2022-12-07T12:29:54;100595.31;;;6.31;56.02
64066;BME280;50318;54.760;9.408;2022-12-07T12:32:35;100612.31;;;6.39;56.48
64066;BME280;50318;54.760;9.408;2022-12-07T12:37:53;100572.16;;;6.23;56.13
64066;BME280;50318;54.760;9.408;2022-12-07T12:42:54;100594.34;;;6.41;55.82
64066;BME280;50318;54.760;9.408;2022-12-07T12:45:24;100593.63;;;6.37;55.72
64066;BME280;50318;54.760;9.408;2022-12-07T12:50:36;100593.22;;;6.39;56.22
64066;BME280;50318;54.760;9.408;2022-12-07T12:53:19;100578.81;;;6.38;56.30
64066;BME280;50318;54.760;9.408;2022-12-07T12:56:27;100588.63;;;6.52;56.16
64066;BME280;50318;54.760;9.408;2022-12-07T13:01:43;100586.25;;;6.54;56.28
64066;BME280;50318;54.760;9.408;2022-12-07T13:04:18;100590.84;;;6.57;56.61
64066;BME280;50318;54.760;9.408;2022-12-07T13:06:47;100575.00;;;6.52;56.44
64066;BME280;50318;54.760;9.408;2022-12-07T13:09:31;100590.84;;;6.57;55.63
64066;BME280;50318;54.760;9.408;2022-12-07T13:12:04;100590.00;;;6.60;55.87
64066;BME280;50318;54.760;9.408;2022-12-07T13:14:51;100586.06;;;6.61;55.69
64066;BME280;50318;54.760;9.408;2022-12-07T13:25:23;100579.25;;;6.53;55.38
64066;BME280;50318;54.760;9.408;2022-12-07T13:27:58;100580.47;;;6.52;55.32
64066;BME280;50318;54.760;9.408;2022-12-07T13:30:26;100586.41;;;6.47;54.69
64066;BME280;50318;54.760;9.408;2022-12-07T13:32:58;100581.81;;;6.44;54.71
64066;BME280;50318;54.760;9.408;2022-12-07T13:37:54;100580.19;;;6.46;55.45
64066;BME280;50318;54.760;9.408;2022-12-07T13:40:22;100593.91;;;6.59;56.00
64066;BME280;50318;54.760;9.408;2022-12-07T13:42:48;100590.00;;;6.60;56.13
64066;BME280;50318;54.760;9.408;2022-12-07T13:45:31;100579.09;;;6.60;55.23
64066;BME280;50318;54.760;9.408;2022-12-07T13:50:57;100593.94;;;6.75;55.76
64066;BME280;50318;54.760;9.408;2022-12-07T13:53:24;100596.56;;;6.79;55.42
64066;BME280;50318;54.760;9.408;2022-12-07T13:55:50;100594.94;;;6.82;54.88
64066;BME280;50318;54.760;9.408;2022-12-07T13:58:16;100602.28;;;6.85;55.12
64066;BME280;50318;54.760;9.408;2022-12-07T14:00:43;100581.16;;;6.72;54.54
64066;BME280;50318;54.760;9.408;2022-12-07T14:05:42;100587.28;;;6.76;54.55
64066;BME280;50318;54.760;9.408;2022-12-07T14:15:54;100583.63;;;6.67;54.84
64066;BME280;50318;54.760;9.408;2022-12-07T14:18:36;100605.50;;;6.80;55.35
64066;BME280;50318;54.760;9.408;2022-12-07T14:21:18;100614.97;;;6.75;55.12
64066;BME280;50318;54.760;9.408;2022-12-07T14:26:32;100606.28;;;6.64;55.26
64066;BME280;50318;54.760;9.408;2022-12-07T14:31:53;100607.19;;;6.57;55.22
64066;BME280;50318;54.760;9.408;2022-12-07T14:34:20;100609.59;;;6.55;55.27
64066;BME280;50318;54.760;9.408;2022-12-07T14:36:46;100591.53;;;6.45;55.36
64066;BME280;50318;54.760;9.408;2022-12-07T14:39:12;100600.38;;;6.49;55.25
64066;BME280;50318;54.760;9.408;2022-12-07T14:41:38;100591.28;;;6.39;55.49
64066;BME280;50318;54.760;9.408;2022-12-07T14:44:17;100598.16;;;6.44;55.33
64066;BME280;50318;54.760;9.408;2022-12-07T14:46:43;100597.06;;;6.41;55.93
64066;BME280;50318;54.760;9.408;2022-12-07T14:49:08;100573.19;;;6.29;56.06
64066;BME280;50318;54.760;9.408;2022-12-07T14:51:36;100581.97;;;6.37;55.98
64066;BME280;50318;54.760;9.408;2022-12-07T14:54:05;100570.47;;;6.29;56.11
64066;BME280;50318;54.760;9.408;2022-12-07T14:56:32;100576.69;;;6.30;55.92
64066;BME280;50318;54.760;9.408;2022-12-07T14:59:00;100580.25;;;6.27;56.32
64066;BME280;50318;54.760;9.408;2022-12-07T15:01:26;100573.78;;;6.21;56.16
64066;BME280;50318;54.760;9.408;2022-12-07T15:03:52;100580.34;;;6.23;56.58
64066;BME280;50318;54.760;9.408;2022-12-07T15:06:18;100573.09;;;6.17;56.00
64066;BME280;50318;54.760;9.408;2022-12-07T15:08:44;100590.88;;;6.21;56.85
64066;BME280;50318;54.760;9.408;2022-12-07T15:11:14;100564.78;;;6.04;56.48
64066;BME280;50318;54.760;9.408;2022-12-07T15:13:40;100581.81;;;6.08;56.40
64066;BME280;50318;54.760;9.408;2022-12-07T15:16:24;100580.28;;;6.07;56.58
64066;BME280;50318;54.760;9.408;2022-12-07T15:18:50;100581.22;;;6.00;56.61
64066;BME280;50318;54.760;9.408;2022-12-07T15:21:17;100575.19;;;5.89;56.46
64066;BME280;50318;54.760;9.408;2022-12-07T15:23:42;100583.75;;;5.88;56.82
64066;BME280;50318;54.760;9.408;2022-12-07T15:26:10;100573.03;;;5.80;57.22